This is the latest recevied weather packets stored in our database for station/object K9RJT. If no packets are shown the sender has not sent any weather packets the latest 10 day(s).
| Time | Temp. | Humidity | Pressure | Rain* | Wind** | Luminosity | Snow |
|---|---|---|---|---|---|---|---|
| 1778003167 | 20° C | 49% | 1009.1 hPa | 0 mm | - | 606 W/m² | - |
| 1778002863 | 20° C | 48% | 1009.3 hPa | 0 mm | - | 598 W/m² | - |
| 1778002560 | 20.56° C | 49% | 1009.2 hPa | 0 mm | - | 590 W/m² | - |
| 1778002256 | 20° C | 49% | 1009.6 hPa | 0 mm | - | 580 W/m² | - |
| 1778001954 | 19.44° C | 51% | 1009.2 hPa | 0 mm | - | 574 W/m² | - |
| 1778001650 | 19.44° C | 51% | 1009.4 hPa | 0 mm | - | 565 W/m² | - |
| 1778001345 | 18.89° C | 52% | 1009.4 hPa | 0 mm | - | 554 W/m² | - |
| 1778001042 | 19.44° C | 52% | 1009.2 hPa | 0 mm | - | 546 W/m² | - |
| 1778000739 | 18.89° C | 53% | 1009.4 hPa | 0 mm | - | 536 W/m² | - |
| 1778000436 | 18.89° C | 53% | 1009.6 hPa | 0 mm | - | 527 W/m² | - |
| 1778000131 | 18.33° C | 54% | 1009.3 hPa | 0 mm | - | 520 W/m² | - |
| 1777999827 | 17.78° C | 54% | 1009.6 hPa | 0 mm | - | 509 W/m² | - |
| 1777999523 | 17.78° C | 55% | 1009.6 hPa | 0 mm | - | 497 W/m² | - |
| 1777999221 | 17.22° C | 56% | 1009.4 hPa | 0 mm | - | 486 W/m² | - |
| 1777998919 | 17.22° C | 55% | 1009.6 hPa | 0 mm | - | 476 W/m² | - |
| 1777998616 | 16.67° C | 56% | 1009.4 hPa | 0 mm | - | 463 W/m² | - |
| 1777998309 | 16.67° C | 57% | 1009.7 hPa | 0 mm | - | 451 W/m² | - |
| 1777998006 | 17.22° C | 55% | 1009.7 hPa | 0 mm | - | 441 W/m² | - |
| 1777997702 | 17.22° C | 55% | 1009.8 hPa | 0 mm | - | 429 W/m² | - |
| 1777997400 | 16.67° C | 54% | 1009.7 hPa | 0 mm | - | 415 W/m² | - |
| 1777997098 | 15.56° C | 58% | 1009.7 hPa | 0 mm | - | 402 W/m² | - |
| 1777996794 | 15.56° C | 56% | 1009.7 hPa | 0 mm | - | 392 W/m² | - |
| 1777996491 | 15.56° C | 58% | 1009.7 hPa | 0 mm | - | 382 W/m² | - |
| 1777996188 | 15° C | 58% | 1009.9 hPa | 0 mm | - | 343 W/m² | - |
| 1777995884 | 14.44° C | 59% | 1009.8 hPa | 0 mm | - | 354 W/m² | - |
* Rain latest hour (hover to see other rain measurements)
** Current wind speed in m/s (hover to see current wind gust speed)